Time;durP1;ratioP1;P1;durP2;ratioP2;P2;SDS_P1;SDS_P2;PMS_P1;PMS_P2;Temp;Humidity;BMP_temperature;BMP_pressure;BME280_temperature;BME280_humidity;BME280_pressure;Samples;Min_cycle;Max_cycle;Signal;HPM_P1;HPM_P2
2024/04/03 00:00:51;;;;;;;0.30;0.30;;;10.40;99.90;10.30;99680.00;;;;4892838;28;93864;-66
2024/04/03 00:03:17;;;;;;;0.40;0.40;;;10.40;99.90;10.30;99680.00;;;;4892791;28;93330;-66
2024/04/03 00:05:43;;;;;;;0.77;0.50;;;10.40;99.90;10.30;99676.00;;;;4893259;28;94013;-67
2024/04/03 00:08:08;;;;;;;1.00;0.83;;;10.40;99.90;10.30;99670.00;;;;4889799;28;123184;-66
2024/04/03 00:10:34;;;;;;;0.27;0.17;;;10.40;99.90;10.40;99665.00;;;;4892514;28;110246;-68
2024/04/03 00:13:00;;;;;;;2.27;0.80;;;10.40;99.90;10.40;99663.00;;;;4891423;28;109173;-67
2024/04/03 00:15:26;;;;;;;0.40;0.40;;;10.40;99.90;10.40;99661.00;;;;4890908;28;124024;-67
2024/04/03 00:17:53;;;;;;;1.20;0.47;;;10.50;99.90;10.40;99664.00;;;;4891878;28;110412;-67
2024/04/03 00:20:20;;;;;;;3.80;0.50;;;10.40;99.90;10.40;99675.00;;;;4893023;28;92946;-67
2024/04/03 00:22:45;;;;;;;0.57;0.50;;;10.50;99.90;10.40;99664.00;;;;4889798;28;93120;-67
2024/04/03 00:25:11;;;;;;;5.03;1.20;;;10.50;99.90;10.40;99667.00;;;;4891501;28;123188;-67
2024/04/03 00:27:36;;;;;;;0.47;0.43;;;10.50;99.90;10.40;99672.00;;;;4890849;28;97125;-67
2024/04/03 00:30:03;;;;;;;0.73;0.60;;;10.50;99.90;10.40;99658.00;;;;4891157;28;111648;-67
2024/04/03 00:32:30;;;;;;;1.50;0.57;;;10.50;99.90;10.40;99665.00;;;;4894842;28;100720;-68
2024/04/03 00:34:55;;;;;;;0.33;0.30;;;10.40;99.90;10.20;99660.00;;;;4889850;28;120696;-68
2024/04/03 00:37:21;;;;;;;2.40;0.67;;;10.30;99.90;10.00;99662.00;;;;4890970;28;112694;-67
2024/04/03 00:39:47;;;;;;;1.13;0.77;;;10.20;99.90;9.90;99671.00;;;;4894292;28;109843;-67
2024/04/03 00:42:12;;;;;;;1.23;0.80;;;10.10;99.90;9.90;99668.00;;;;4892257;28;94072;-67
2024/04/03 00:44:48;;;;;;;2.50;0.63;;;10.00;99.90;9.80;99668.00;;;;4892894;28;122625;-67
2024/04/03 00:47:15;;;;;;;0.53;0.40;;;10.00;99.90;9.80;99671.00;;;;4891931;28;93144;-68
2024/04/03 00:49:45;;;;;;;0.93;0.73;;;9.90;99.90;9.80;99658.00;;;;4891733;28;93198;-68
2024/04/03 00:52:15;;;;;;;1.37;0.90;;;9.90;99.90;9.70;99663.00;;;;4891703;28;92973;-68
2024/04/03 00:54:45;;;;;;;0.50;0.40;;;9.80;99.90;9.60;99652.00;;;;4888126;28;115420;-67
2024/04/03 00:57:13;;;;;;;0.80;0.70;;;9.80;99.90;9.60;99654.00;;;;4891439;28;93095;-66
2024/04/03 00:59:40;;;;;;;0.93;0.67;;;9.70;99.90;9.50;99655.00;;;;4892699;28;93790;-68
2024/04/03 01:02:09;;;;;;;1.07;0.73;;;9.70;99.90;9.50;99650.00;;;;4890711;28;93117;-68
2024/04/03 01:04:35;;;;;;;0.50;0.40;;;9.60;99.90;9.50;99645.00;;;;4891139;28;94268;-67
2024/04/03 01:07:07;;;;;;;1.80;0.93;;;9.60;99.90;9.50;99641.00;;;;4890354;28;111128;-67
2024/04/03 01:09:33;;;;;;;0.70;0.40;;;9.60;99.90;9.50;99644.00;;;;4891239;28;93184;-67
2024/04/03 01:12:00;;;;;;;1.03;0.73;;;9.50;99.90;9.40;99640.00;;;;4891547;28;93783;-67
2024/04/03 01:14:25;;;;;;;6.53;0.50;;;9.50;99.90;9.40;99643.00;;;;4892443;28;94439;-67
2024/04/03 01:16:51;;;;;;;4.70;1.03;;;9.60;99.90;9.30;99632.00;;;;4890302;28;122709;-68
2024/04/03 01:19:17;;;;;;;3.93;0.67;;;9.40;99.90;9.30;99632.00;;;;4890525;28;111441;-68
2024/04/03 01:21:42;;;;;;;1.60;0.70;;;9.40;99.90;9.20;99626.00;;;;4888652;28;106672;-67
2024/04/03 01:24:08;;;;;;;1.73;0.50;;;9.40;99.90;9.20;99622.00;;;;4889701;28;121859;-68
2024/04/03 01:26:33;;;;;;;0.40;0.40;;;9.30;99.90;9.20;99629.00;;;;4892525;28;113664;-67
2024/04/03 01:28:59;;;;;;;0.77;0.60;;;9.30;99.90;9.20;99626.00;;;;4889490;28;110564;-66
2024/04/03 01:31:25;;;;;;;0.53;0.43;;;9.30;99.90;9.20;99616.00;;;;4888794;28;108552;-68
2024/04/03 01:33:50;;;;;;;1.47;0.90;;;9.30;99.90;9.20;99615.00;;;;4889738;28;93437;-67
2024/04/03 01:36:19;;;;;;;0.83;0.53;;;9.30;99.90;9.20;99614.00;;;;4887380;28;122787;-67
2024/04/03 01:38:45;;;;;;;1.43;0.40;;;9.20;99.90;9.10;99616.00;;;;4891369;28;92703;-66
2024/04/03 01:41:12;;;;;;;1.23;0.70;;;9.20;99.90;9.10;99608.00;;;;4890831;28;93018;-67
2024/04/03 01:43:38;;;;;;;1.40;0.80;;;9.20;99.90;9.00;99609.00;;;;4887504;28;93175;-67
2024/04/03 01:46:04;;;;;;;0.30;0.30;;;9.10;99.90;9.00;99615.00;;;;4890191;28;121836;-67
2024/04/03 01:48:29;;;;;;;1.40;0.63;;;9.10;99.90;9.00;99606.00;;;;4892552;28;92407;-66
2024/04/03 01:50:55;;;;;;;1.83;0.87;;;9.10;99.90;8.90;99611.00;;;;4891419;28;104167;-66
2024/04/03 01:53:21;;;;;;;1.63;0.57;;;9.00;99.90;8.90;99604.00;;;;4888408;28;120607;-67
2024/04/03 01:55:58;;;;;;;0.67;0.40;;;9.00;99.90;8.90;99614.00;;;;4886971;28;121843;-66
2024/04/03 01:58:24;;;;;;;0.60;0.53;;;9.00;99.90;8.90;99613.00;;;;4892379;28;93085;-65
2024/04/03 02:00:51;;;;;;;0.57;0.57;;;9.00;99.90;8.80;99596.00;;;;4891473;28;107874;-66
2024/04/03 02:03:18;;;;;;;0.70;0.63;;;8.90;99.90;8.80;99602.00;;;;4892125;28;94197;-67
2024/04/03 02:05:46;;;;;;;3.13;0.83;;;9.00;99.90;8.80;99588.00;;;;4891820;28;93144;-67
2024/04/03 02:08:12;;;;;;;0.60;0.53;;;8.90;99.90;8.80;99603.00;;;;4891173;28;93039;-64
2024/04/03 02:10:38;;;;;;;1.50;0.80;;;8.90;99.90;8.80;99587.00;;;;4890993;28;102537;-67
2024/04/03 02:13:04;;;;;;;1.97;0.93;;;8.90;99.90;8.90;99595.00;;;;4890450;28;92857;-67
2024/04/03 02:15:30;;;;;;;0.47;0.33;;;9.00;99.90;8.90;99589.00;;;;4890295;28;93513;-67
2024/04/03 02:17:56;;;;;;;2.53;0.57;;;9.00;99.90;8.90;99602.00;;;;4893244;28;93211;-66
2024/04/03 02:20:21;;;;;;;0.77;0.57;;;8.90;99.90;8.90;99593.00;;;;4888513;28;108754;-66
2024/04/03 02:22:47;;;;;;;1.10;0.60;;;9.00;99.90;8.90;99599.00;;;;4889357;28;122002;-67
2024/04/03 02:25:13;;;;;;;1.40;0.77;;;8.90;99.90;8.90;99592.00;;;;4892130;28;123339;-66
2024/04/03 02:27:39;;;;;;;0.70;0.70;;;9.00;99.90;8.90;99586.00;;;;4889453;28;109287;-67
2024/04/03 02:30:06;;;;;;;1.73;0.87;;;9.00;99.90;8.90;99587.00;;;;4886996;28;93255;-66
2024/04/03 02:32:31;;;;;;;1.10;0.50;;;9.00;99.90;8.90;99577.00;;;;4893683;28;93434;-66
2024/04/03 02:34:57;;;;;;;1.27;0.57;;;9.00;99.90;9.00;99586.00;;;;4892380;28;120937;-66
2024/04/03 02:37:22;;;;;;;0.43;0.43;;;9.00;99.90;9.10;99584.00;;;;4891213;28;110230;-66
2024/04/03 02:39:48;;;;;;;2.20;0.60;;;9.10;99.90;9.10;99581.00;;;;4890680;28;108792;-66
2024/04/03 02:42:14;;;;;;;2.10;1.03;;;9.10;99.90;9.10;99578.00;;;;4890299;28;123066;-67
2024/04/03 02:44:39;;;;;;;0.93;0.90;;;8.80;99.90;9.10;99581.00;;;;4902258;28;121661;-67
2024/04/03 02:47:06;;;;;;;3.23;0.70;;;9.10;99.90;9.00;99580.00;;;;4890843;28;109511;-66
2024/04/03 02:49:32;;;;;;;2.10;0.60;;;9.10;99.90;9.00;99579.00;;;;4893837;28;107131;-65
2024/04/03 02:51:57;;;;;;;1.13;0.80;;;9.10;99.90;9.00;99564.00;;;;4892351;28;122793;-67
2024/04/03 02:54:23;;;;;;;0.73;0.50;;;9.10;99.90;8.90;99570.00;;;;4890842;28;121769;-66
2024/04/03 02:56:49;;;;;;;1.47;0.97;;;9.00;99.90;8.90;99578.00;;;;4892551;28;109913;-66
2024/04/03 02:59:14;;;;;;;1.30;1.00;;;9.10;99.90;8.90;99576.00;;;;4893649;28;108637;-66
2024/04/03 03:01:40;;;;;;;0.60;0.43;;;9.00;99.90;8.80;99569.00;;;;4895900;28;121256;-67
2024/04/03 03:04:06;;;;;;;0.53;0.53;;;8.90;99.90;8.80;99579.00;;;;4893892;28;121874;-66
2024/04/03 03:06:32;;;;;;;0.87;0.73;;;8.90;99.90;8.80;99580.00;;;;4893824;28;93007;-66
2024/04/03 03:08:57;;;;;;;1.90;0.77;;;8.90;99.90;8.80;99569.00;;;;4894245;28;93815;-67
2024/04/03 03:11:23;;;;;;;1.90;0.87;;;8.90;99.90;8.70;99579.00;;;;4892267;28;123438;-67
2024/04/03 03:13:49;;;;;;;3.80;0.67;;;8.90;99.90;8.80;99576.00;;;;4893716;28;98589;-66
2024/04/03 03:16:20;;;;;;;2.57;0.50;;;8.80;99.90;8.80;99587.00;;;;4893682;28;109002;-66
2024/04/03 03:18:46;;;;;;;2.10;0.80;;;8.80;99.90;8.80;99586.00;;;;4892233;28;93009;-66
2024/04/03 03:21:12;;;;;;;0.40;0.40;;;8.90;99.90;8.90;99589.00;;;;4894063;28;93437;-67
2024/04/03 03:23:38;;;;;;;1.87;0.80;;;8.90;99.90;8.90;99582.00;;;;4889137;28;122615;-66
2024/04/03 03:26:03;;;;;;;0.73;0.70;;;9.00;99.90;9.00;99589.00;;;;4893402;28;110263;-66
2024/04/03 03:28:29;;;;;;;1.63;0.67;;;9.10;99.90;9.10;99585.00;;;;4892877;28;109007;-66
2024/04/03 03:30:58;;;;;;;3.50;0.70;;;9.10;99.90;9.10;99593.00;;;;4894129;28;94445;-67
2024/04/03 03:33:25;;;;;;;0.80;0.80;;;9.20;99.90;9.20;99595.00;;;;4893043;28;94126;-66
2024/04/03 03:35:53;;;;;;;0.80;0.80;;;9.20;99.90;9.30;99587.00;;;;4892862;28;93279;-66
2024/04/03 03:38:19;;;;;;;0.40;0.40;;;9.30;99.90;9.30;99601.00;;;;4891428;28;93206;-66
2024/04/03 03:40:46;;;;;;;0.77;0.77;;;9.30;99.90;9.40;99589.00;;;;4893731;28;93288;-66
2024/04/03 03:43:12;;;;;;;1.00;0.93;;;9.30;99.90;9.30;99586.00;;;;4892923;28;92985;-66
2024/04/03 03:45:46;;;;;;;3.57;0.87;;;9.40;99.90;9.30;99592.00;;;;4891982;28;103671;-67
2024/04/03 03:48:13;;;;;;;2.57;1.13;;;9.40;99.90;9.30;99599.00;;;;4892204;28;93171;-66
2024/04/03 03:53:25;;;;;;;3.40;1.23;;;9.40;99.90;9.20;99604.00;;;;4891285;28;93145;-67
2024/04/03 03:55:52;;;;;;;0.97;0.50;;;9.40;99.90;9.20;99600.00;;;;4894192;28;93979;-66
2024/04/03 03:58:19;;;;;;;1.47;0.80;;;9.30;99.90;9.10;99607.00;;;;4892689;28;94047;-67
2024/04/03 04:00:45;;;;;;;3.77;0.70;;;9.30;99.90;9.10;99608.00;;;;4891679;28;104298;-66
2024/04/03 04:03:10;;;;;;;1.53;0.90;;;9.20;99.90;9.00;99602.00;;;;4892146;28;93250;-66
2024/04/03 04:05:36;;;;;;;0.37;0.37;;;9.10;99.90;9.00;99603.00;;;;4889667;28;101710;-65
2024/04/03 04:08:05;;;;;;;0.73;0.73;;;9.10;99.90;8.90;99601.00;;;;4891775;28;108230;-66
2024/04/03 04:10:31;;;;;;;3.77;1.20;;;7.70;99.90;8.90;99602.00;;;;4891342;28;93956;-66
2024/04/03 04:12:56;;;;;;;1.03;0.60;;;9.00;99.90;8.80;99609.00;;;;4891323;28;120144;-67
2024/04/03 04:15:23;;;;;;;1.20;0.87;;;9.00;99.90;8.80;99599.00;;;;4894242;28;92316;-67
2024/04/03 04:17:52;;;;;;;2.13;1.00;;;8.90;99.90;8.80;99602.00;;;;4893599;28;92869;-67
2024/04/03 04:20:19;;;;;;;1.73;0.80;;;8.90;99.90;8.70;99607.00;;;;4892538;28;93264;-67
2024/04/03 04:22:48;;;;;;;0.97;0.60;;;8.90;99.90;8.70;99611.00;;;;4889301;28;124003;-67
2024/04/03 04:25:13;;;;;;;1.13;0.50;;;8.80;99.90;8.60;99608.00;;;;4890787;28;93175;-66
2024/04/03 04:27:39;;;;;;;3.20;0.80;;;8.70;99.90;8.60;99606.00;;;;4889854;28;108534;-66
2024/04/03 04:30:08;;;;;;;1.87;0.93;;;8.70;99.90;8.60;99616.00;;;;4864623;28;98984;-66
2024/04/03 04:32:34;;;;;;;4.10;0.90;;;8.70;99.90;8.50;99603.00;;;;4892705;28;93457;-66
2024/04/03 04:35:00;;;;;;;1.70;0.77;;;8.70;99.90;8.50;99620.00;;;;4895468;28;110936;-67
2024/04/03 04:37:26;;;;;;;1.27;0.63;;;8.60;99.90;8.50;99611.00;;;;4893013;28;92826;-66
2024/04/03 04:39:52;;;;;;;2.57;1.00;;;8.60;99.90;8.40;99612.00;;;;4892508;28;107093;-66
2024/04/03 04:42:19;;;;;;;0.97;0.70;;;8.60;99.90;8.40;99607.00;;;;4889170;28;122769;-66
2024/04/03 04:44:45;;;;;;;0.83;0.60;;;8.60;99.90;8.40;99600.00;;;;4893014;28;110430;-66
2024/04/03 04:47:11;;;;;;;1.43;0.60;;;8.50;99.90;8.40;99612.00;;;;4891225;28;108088;-67
2024/04/03 04:49:36;;;;;;;2.10;0.67;;;8.50;99.90;8.30;99602.00;;;;4893613;28;117122;-66
2024/04/03 04:52:02;;;;;;;2.60;0.93;;;8.50;99.90;8.30;99627.00;;;;4893147;28;121395;-66
2024/04/03 04:54:28;;;;;;;4.93;1.20;;;8.40;99.90;8.20;99615.00;;;;4893598;28;96011;-66
2024/04/03 04:56:53;;;;;;;3.37;0.97;;;8.40;99.90;8.20;99628.00;;;;4894037;28;100847;-67
2024/04/03 04:59:20;;;;;;;0.67;0.63;;;8.40;99.90;8.20;99626.00;;;;4892206;28;93047;-66
2024/04/03 05:01:45;;;;;;;7.23;1.37;;;8.40;99.90;8.20;99633.00;;;;4891296;28;125711;-66
2024/04/03 05:04:12;;;;;;;1.77;0.73;;;8.30;99.90;8.20;99635.00;;;;4891858;28;92262;-66
2024/04/03 05:06:38;;;;;;;5.10;0.83;;;8.30;99.90;8.20;99630.00;;;;4889989;28;92859;-66
2024/04/03 05:09:05;;;;;;;1.00;0.63;;;8.30;99.90;8.20;99628.00;;;;4887482;28;93179;-67
2024/04/03 05:11:31;;;;;;;3.57;0.90;;;8.30;99.90;8.20;99647.00;;;;4887282;28;94142;-66
2024/04/03 05:13:57;;;;;;;0.80;0.80;;;8.30;99.90;8.20;99647.00;;;;4887640;28;109720;-67
2024/04/03 05:16:22;;;;;;;2.37;0.93;;;8.30;99.90;8.30;99641.00;;;;4888785;28;108727;-66
2024/04/03 05:18:50;;;;;;;1.10;0.67;;;8.40;99.90;8.30;99642.00;;;;4890113;28;116883;-67
2024/04/03 05:21:17;;;;;;;0.77;0.70;;;8.40;99.90;8.40;99646.00;;;;4888266;28;93312;-66
2024/04/03 05:23:43;;;;;;;3.53;0.90;;;8.50;99.90;8.50;99635.00;;;;4889051;28;92774;-66
2024/04/03 05:26:13;;;;;;;1.20;0.67;;;8.50;99.90;8.50;99637.00;;;;4889071;28;93375;-66
2024/04/03 05:28:39;;;;;;;0.67;0.50;;;8.60;99.90;8.60;99647.00;;;;4888756;28;92625;-66
2024/04/03 05:31:17;;;;;;;4.53;1.00;;;8.70;99.90;8.60;99649.00;;;;4889705;28;92875;-66
2024/04/03 05:33:43;;;;;;;1.23;0.53;;;8.70;99.90;8.70;99654.00;;;;4887289;28;93130;-66
2024/04/03 05:36:10;;;;;;;0.60;0.60;;;9.40;99.90;8.80;99656.00;;;;4888138;28;93937;-67
2024/04/03 05:38:37;;;;;;;2.07;1.10;;;8.90;99.90;9.00;99645.00;;;;4888636;28;93431;-67
2024/04/03 05:41:03;;;;;;;1.43;0.70;;;8.90;99.90;9.00;99649.00;;;;4890978;28;115314;-66
2024/04/03 05:43:30;;;;;;;3.20;0.80;;;9.10;99.90;9.20;99647.00;;;;4888719;28;93150;-66
2024/04/03 05:45:56;;;;;;;1.40;0.70;;;9.20;99.90;9.20;99642.00;;;;4888723;28;95655;-67
2024/04/03 05:48:23;;;;;;;1.37;1.00;;;9.30;99.90;9.40;99629.00;;;;4887549;28;94700;-66
2024/04/03 05:51:06;;;;;;;1.33;0.90;;;9.40;99.90;9.50;99629.00;;;;4890345;28;114575;-66
2024/04/03 05:53:33;;;;;;;1.20;0.60;;;9.50;99.90;9.60;99636.00;;;;4886357;28;92195;-66
2024/04/03 05:56:02;;;;;;;0.90;0.67;;;9.60;99.90;9.70;99645.00;;;;4888658;28;92868;-66
2024/04/03 05:58:29;;;;;;;2.97;1.17;;;9.80;99.90;9.90;99643.00;;;;4888902;28;94196;-66
2024/04/03 06:00:57;;;;;;;1.47;0.73;;;9.90;99.90;10.00;99642.00;;;;4887654;28;93995;-66
2024/04/03 06:03:23;;;;;;;1.07;0.60;;;10.00;99.90;10.20;99639.00;;;;4887876;28;92924;-67
2024/04/03 06:05:53;;;;;;;0.80;0.80;;;10.10;99.90;10.30;99647.00;;;;4888104;28;108740;-66
2024/04/03 06:08:20;;;;;;;1.07;0.60;;;10.30;99.90;10.50;99642.00;;;;4888159;28;95009;-67
2024/04/03 06:10:46;;;;;;;0.77;0.53;;;10.50;99.90;10.70;99642.00;;;;4889517;28;94073;-67
2024/04/03 06:13:11;;;;;;;2.10;1.13;;;10.70;99.90;10.90;99631.00;;;;4887327;28;96332;-66
2024/04/03 06:15:37;;;;;;;0.50;0.50;;;10.90;99.90;11.00;99631.00;;;;4888408;28;109029;-66
2024/04/03 06:18:03;;;;;;;3.30;0.60;;;11.00;99.90;11.20;99627.00;;;;4887136;28;122177;-67
2024/04/03 06:20:29;;;;;;;3.23;1.27;;;11.10;99.90;11.40;99636.00;;;;4888220;28;92916;-66
2024/04/03 06:22:55;;;;;;;1.73;1.00;;;11.30;99.90;11.50;99643.00;;;;4886840;28;109827;-65
2024/04/03 06:25:21;;;;;;;1.13;0.80;;;11.50;99.90;11.60;99639.00;;;;4891100;28;94021;-65
2024/04/03 06:27:47;;;;;;;1.70;1.03;;;11.60;99.90;11.70;99643.00;;;;4888531;28;117331;-65
2024/04/03 06:30:13;;;;;;;0.43;0.43;;;11.70;99.90;11.90;99644.00;;;;4890419;28;116290;-65
2024/04/03 06:32:39;;;;;;;3.50;0.57;;;11.90;99.90;12.00;99639.00;;;;4891813;28;93354;-66
2024/04/03 06:35:05;;;;;;;1.50;0.77;;;12.00;99.90;12.10;99638.00;;;;4892221;28;92970;-65
2024/04/03 06:37:31;;;;;;;1.87;0.70;;;12.10;99.90;12.30;99639.00;;;;4890662;28;93702;-65
2024/04/03 06:39:59;;;;;;;0.87;0.43;;;12.30;99.90;12.40;99630.00;;;;4892249;28;93732;-65
2024/04/03 06:42:24;;;;;;;1.30;0.67;;;12.40;99.90;12.60;99643.00;;;;4889279;28;92260;-66
2024/04/03 06:44:51;;;;;;;1.57;0.80;;;12.60;99.90;12.70;99647.00;;;;4891879;28;108055;-68
2024/04/03 06:47:17;;;;;;;0.90;0.80;;;12.70;99.90;12.90;99659.00;;;;4892873;28;93715;-65
2024/04/03 06:49:43;;;;;;;1.37;0.70;;;12.80;99.90;13.00;99658.00;;;;4890184;28;117689;-66
2024/04/03 06:52:09;;;;;;;0.40;0.30;;;13.00;99.90;13.10;99660.00;;;;4890652;28;110710;-66
2024/04/03 06:54:35;;;;;;;0.80;0.63;;;13.10;99.90;13.20;99655.00;;;;4895691;28;93106;-66
2024/04/03 06:57:02;;;;;;;0.60;0.47;;;13.20;99.90;13.30;99657.00;;;;4890789;28;123073;-66
2024/04/03 06:59:28;;;;;;;0.40;0.30;;;13.30;99.90;13.30;99664.00;;;;4891538;28;93110;-66
2024/04/03 07:01:53;;;;;;;0.73;0.70;;;13.40;99.90;13.40;99665.00;;;;4892364;28;93050;-66
2024/04/03 07:04:19;;;;;;;1.27;0.90;;;13.50;99.90;13.60;99672.00;;;;4890860;28;109901;-66
2024/04/03 07:06:45;;;;;;;0.97;0.67;;;13.60;99.90;13.70;99659.00;;;;4890786;28;122753;-66
2024/04/03 07:09:10;;;;;;;1.80;0.77;;;13.70;99.90;13.80;99679.00;;;;4890274;28;93372;-65
2024/04/03 07:11:36;;;;;;;2.10;0.70;;;13.80;99.90;13.80;99667.00;;;;4888770;28;111115;-67
2024/04/03 07:14:02;;;;;;;0.37;0.37;;;13.80;99.90;13.80;99680.00;;;;4888700;28;108393;-65
2024/04/03 07:16:27;;;;;;;1.87;0.57;;;13.90;99.70;13.90;99688.00;;;;4890954;28;93131;-66
2024/04/03 07:18:55;;;;;;;3.45;1.13;;;13.90;99.70;13.90;99690.00;;;;4889915;28;93192;-65
2024/04/03 07:21:20;;;;;;;4.13;0.70;;;13.90;99.50;13.90;99677.00;;;;4891883;28;93044;-66
2024/04/03 07:23:46;;;;;;;0.73;0.50;;;13.90;99.40;13.80;99690.00;;;;4890209;28;93163;-66
2024/04/03 07:26:12;;;;;;;5.28;0.82;;;13.80;99.30;13.70;99692.00;;;;4889059;28;100586;-66
2024/04/03 07:28:38;;;;;;;2.07;0.97;;;13.80;99.20;13.70;99687.00;;;;4893282;28;93107;-66
2024/04/03 07:31:03;;;;;;;0.95;0.70;;;13.80;99.20;13.60;99676.00;;;;4889900;28;109916;-65
2024/04/03 07:33:29;;;;;;;0.83;0.57;;;13.70;99.20;13.50;99699.00;;;;4890237;28;109678;-65
2024/04/03 07:35:55;;;;;;;1.35;0.60;;;13.60;99.30;13.50;99702.00;;;;4891500;28;122589;-65
2024/04/03 07:38:20;;;;;;;0.47;0.43;;;13.50;99.30;13.50;99707.00;;;;4887951;28;122875;-66
2024/04/03 07:40:54;;;;;;;0.70;0.70;;;13.50;99.60;13.50;99697.00;;;;4891258;28;96089;-66
2024/04/03 07:43:20;;;;;;;0.50;0.50;;;13.60;99.70;13.60;99700.00;;;;4889001;28;93027;-66
2024/04/03 07:45:45;;;;;;;1.33;0.40;;;13.60;99.80;13.70;99698.00;;;;4889554;28;114611;-65
2024/04/03 07:48:11;;;;;;;2.37;0.70;;;13.60;99.60;13.70;99702.00;;;;4889230;28;123761;-67
2024/04/03 07:50:39;;;;;;;0.98;0.52;;;13.70;99.70;13.80;99704.00;;;;4890388;28;96519;-66
2024/04/03 07:53:06;;;;;;;3.57;0.87;;;13.80;99.50;13.90;99703.00;;;;4897892;28;93271;-66
2024/04/03 07:55:35;;;;;;;0.87;0.63;;;13.80;99.50;13.90;99710.00;;;;4889738;28;92907;-66
2024/04/03 07:58:02;;;;;;;1.63;0.60;;;13.90;99.20;14.00;99704.00;;;;4889650;28;92944;-66
2024/04/03 08:00:28;;;;;;;4.30;1.20;;;13.90;99.00;13.90;99698.00;;;;4889909;28;92961;-66
2024/04/03 08:02:54;;;;;;;1.27;0.83;;;13.90;98.90;14.10;99693.00;;;;4889802;28;99215;-66
2024/04/03 08:05:19;;;;;;;0.93;0.73;;;14.00;98.70;14.30;99707.00;;;;4888968;28;122776;-66
2024/04/03 08:07:45;;;;;;;1.65;0.95;;;14.20;98.70;14.50;99700.00;;;;4889096;28;93918;-66
2024/04/03 08:10:12;;;;;;;1.23;0.40;;;14.40;98.70;14.70;99698.00;;;;4888711;28;93209;-65
2024/04/03 08:12:40;;;;;;;1.10;0.50;;;14.60;97.60;14.70;99707.00;;;;4888702;28;93096;-65
2024/04/03 08:15:11;;;;;;;4.03;0.98;;;14.70;97.00;14.70;99708.00;;;;4889594;28;109324;-65
2024/04/03 08:17:37;;;;;;;1.45;0.63;;;14.70;96.90;14.60;99708.00;;;;4891936;28;93937;-66
2024/04/03 08:20:04;;;;;;;0.93;0.50;;;14.60;96.80;14.50;99716.00;;;;4887780;28;97144;-67
2024/04/03 08:22:30;;;;;;;4.07;0.57;;;14.40;96.90;14.50;99721.00;;;;4889774;28;93101;-67
2024/04/03 08:24:56;;;;;;;1.00;0.60;;;14.50;97.10;14.40;99726.00;;;;4889129;28;123396;-66
2024/04/03 08:27:22;;;;;;;6.53;1.02;;;14.40;97.10;14.40;99715.00;;;;4887377;28;96145;-66
2024/04/03 08:29:49;;;;;;;0.73;0.60;;;14.40;97.20;14.30;99732.00;;;;4888878;28;111375;-67
2024/04/03 08:32:16;;;;;;;1.02;0.57;;;14.30;97.40;14.30;99720.00;;;;4891216;28;94019;-66
2024/04/03 08:34:42;;;;;;;1.45;0.98;;;14.30;97.60;14.30;99728.00;;;;4887517;28;114465;-66
2024/04/03 08:37:09;;;;;;;0.88;0.80;;;14.30;97.80;14.40;99736.00;;;;4889638;28;92974;-65
2024/04/03 08:39:34;;;;;;;3.60;1.15;;;14.30;97.90;14.50;99730.00;;;;4890148;28;92947;-66
2024/04/03 08:42:04;;;;;;;0.52;0.52;;;14.40;98.10;14.60;99732.00;;;;4887522;28;109939;-66
2024/04/03 08:44:33;;;;;;;1.75;0.70;;;14.50;98.20;14.70;99739.00;;;;4888813;28;93115;-67
2024/04/03 08:46:59;;;;;;;1.75;0.55;;;14.60;98.10;14.80;99733.00;;;;4887664;28;93680;-67
2024/04/03 08:49:33;;;;;;;1.17;0.50;;;14.70;98.20;14.90;99734.00;;;;4886730;28;98234;-66
2024/04/03 08:52:03;;;;;;;0.98;0.70;;;14.80;97.80;14.90;99732.00;;;;4889678;28;94127;-66
2024/04/03 08:54:29;;;;;;;3.42;0.88;;;14.80;97.80;14.90;99728.00;;;;4888268;28;93270;-67
2024/04/03 08:56:57;;;;;;;3.15;1.08;;;14.90;97.50;14.90;99744.00;;;;4890002;28;93201;-66
2024/04/03 08:59:23;;;;;;;2.97;0.98;;;14.80;97.40;14.90;99739.00;;;;4890989;28;92903;-66
2024/04/03 09:01:52;;;;;;;2.40;1.08;;;14.80;97.30;14.80;99740.00;;;;4887760;28;109937;-65
2024/04/03 09:04:20;;;;;;;2.97;0.98;;;14.80;97.20;14.80;99748.00;;;;4884361;28;93276;-66
2024/04/03 09:06:46;;;;;;;2.08;0.85;;;14.80;97.30;14.70;99744.00;;;;4890920;28;93350;-65
2024/04/03 09:09:29;;;;;;;4.90;1.25;;;14.70;97.00;14.70;99745.00;;;;4889435;28;92612;-66
2024/04/03 09:12:06;;;;;;;2.63;0.70;;;14.70;97.00;14.60;99743.00;;;;4890137;28;93185;-66
2024/04/03 09:14:35;;;;;;;2.42;0.68;;;14.60;96.70;14.50;99732.00;;;;4889636;28;93594;-66
2024/04/03 09:17:03;;;;;;;2.90;1.02;;;14.50;96.80;14.50;99733.00;;;;4890348;28;93891;-66
2024/04/03 09:19:30;;;;;;;10.85;1.00;;;14.50;97.00;14.40;99743.00;;;;4886642;28;94564;-66
2024/04/03 09:21:59;;;;;;;1.75;1.17;;;14.40;97.20;14.40;99734.00;;;;4889373;28;101698;-66
2024/04/03 09:24:25;;;;;;;1.40;0.73;;;14.40;97.30;14.40;99737.00;;;;4886250;28;93148;-66
2024/04/03 09:26:52;;;;;;;3.10;0.73;;;14.40;97.30;14.40;99741.00;;;;4888554;28;105683;-66
2024/04/03 09:29:19;;;;;;;0.98;0.88;;;14.30;97.40;14.40;99741.00;;;;4890619;28;93059;-66
2024/04/03 09:31:45;;;;;;;2.75;1.10;;;14.40;97.60;14.50;99740.00;;;;4888800;28;93072;-66
2024/04/03 09:34:11;;;;;;;1.73;0.65;;;14.40;97.60;14.50;99742.00;;;;4890235;28;92637;-66
2024/04/03 09:36:40;;;;;;;1.70;0.88;;;14.40;97.60;14.40;99737.00;;;;4888789;28;93108;-66
2024/04/03 09:39:07;;;;;;;1.58;0.73;;;14.40;97.50;14.40;99746.00;;;;4891789;28;92841;-66
2024/04/03 09:41:33;;;;;;;0.70;0.50;;;14.30;97.60;14.40;99734.00;;;;4888502;28;95490;-66
2024/04/03 09:44:01;;;;;;;0.45;0.40;;;14.30;97.70;14.40;99741.00;;;;4887789;28;122903;-66
2024/04/03 09:46:46;;;;;;;0.50;0.50;;;14.30;97.80;14.30;99745.00;;;;4887056;28;93143;-66
2024/04/03 09:49:14;;;;;;;1.58;0.85;;;14.30;97.90;14.30;99749.00;;;;4886968;28;93071;-66
2024/04/03 09:51:40;;;;;;;1.13;0.60;;;14.30;98.30;14.20;99745.00;;;;4888341;28;92937;-66
2024/04/03 09:54:07;;;;;;;2.05;0.65;;;14.20;98.00;14.20;99749.00;;;;4886829;28;113751;-66
2024/04/03 09:56:34;;;;;;;0.57;0.47;;;14.20;98.20;14.20;99753.00;;;;4887695;28;93059;-66
2024/04/03 09:59:02;;;;;;;1.67;0.95;;;14.20;98.70;14.20;99764.00;;;;4887795;28;111017;-66
2024/04/03 10:01:30;;;;;;;1.15;1.05;;;14.10;98.50;14.20;99761.00;;;;4888435;28;93275;-66
2024/04/03 10:04:08;;;;;;;4.07;1.27;;;14.20;98.70;14.10;99767.00;;;;4887871;28;93462;-66
2024/04/03 10:06:41;;;;;;;3.05;0.65;;;14.10;98.90;14.00;99762.00;;;;4879534;28;116799;-66
2024/04/03 10:09:22;;;;;;;1.23;0.90;;;14.10;99.10;13.90;99766.00;;;;4888225;28;92847;-66
2024/04/03 10:11:52;;;;;;;2.65;0.82;;;14.00;99.50;13.80;99778.00;;;;4888763;28;108535;-66
2024/04/03 10:14:19;;;;;;;1.80;0.97;;;13.90;99.70;13.70;99775.00;;;;4887283;28;105702;-67
2024/04/03 10:16:45;;;;;;;0.85;0.75;;;13.80;99.90;13.60;99762.00;;;;4887995;28;93281;-68
2024/04/03 10:19:11;;;;;;;3.05;1.00;;;13.70;99.90;13.60;99784.00;;;;4887347;28;108485;-67
2024/04/03 10:21:36;;;;;;;1.08;0.68;;;13.60;99.90;13.50;99777.00;;;;4887926;28;109657;-66
2024/04/03 10:24:02;;;;;;;0.60;0.50;;;13.50;99.90;13.50;99773.00;;;;4888004;28;122340;-67
2024/04/03 10:26:30;;;;;;;1.13;1.03;;;13.50;99.90;13.60;99772.00;;;;4887399;28;112522;-67
2024/04/03 10:29:03;;;;;;;0.20;0.20;;;13.50;99.90;13.70;99774.00;;;;4885497;28;110922;-68
2024/04/03 10:31:29;;;;;;;0.60;0.50;;;13.60;99.90;13.80;99768.00;;;;4888692;28;93673;-67
2024/04/03 10:33:54;;;;;;;1.55;0.50;;;13.70;99.90;13.80;99769.00;;;;4889097;28;117840;-68
2024/04/03 10:36:20;;;;;;;0.50;0.30;;;13.80;99.90;13.90;99769.00;;;;4886697;28;122064;-66
2024/04/03 10:38:46;;;;;;;0.50;0.50;;;13.90;99.90;14.00;99775.00;;;;4887083;28;93284;-67
2024/04/03 10:41:12;;;;;;;3.00;1.17;;;13.90;99.90;14.10;99768.00;;;;4886777;28;96572;-67
2024/04/03 10:43:38;;;;;;;2.78;0.40;;;14.00;99.90;14.20;99770.00;;;;4885875;28;108469;-67
2024/04/03 10:46:05;;;;;;;1.15;0.85;;;14.10;99.90;14.30;99769.00;;;;4887160;28;94349;-66
2024/04/03 10:48:31;;;;;;;2.28;1.02;;;14.20;99.90;14.30;99772.00;;;;4888662;28;92551;-66
2024/04/03 10:50:57;;;;;;;1.48;1.05;;;14.20;99.90;14.30;99775.00;;;;4887997;28;109183;-67
2024/04/03 10:53:24;;;;;;;1.33;0.95;;;14.20;99.90;14.30;99780.00;;;;4886865;28;93569;-67
2024/04/03 10:55:50;;;;;;;0.30;0.30;;;14.20;99.90;14.20;99785.00;;;;4885793;28;93963;-67
2024/04/03 10:58:15;;;;;;;2.67;0.60;;;14.20;99.90;14.20;99784.00;;;;4885303;28;93109;-67